Time;durP1;ratioP1;P1;durP2;ratioP2;P2;SDS_P1;SDS_P2;PMS_P1;PMS_P2;Temp;Humidity;BMP_temperature;BMP_pressure;BME280_temperature;BME280_humidity;BME280_pressure;Samples;Min_cycle;Max_cycle;Signal;HPM_P1;HPM_P2
2022/07/22 00:01:35;;;;;;;0.10;0.10;;;;;;;20.23;58.43;102319.38;5011227;28;20041;-82
2022/07/22 00:04:02;;;;;;;0.00;0.00;;;;;;;20.24;58.57;102313.06;5011135;28;20038;-80
2022/07/22 00:06:28;;;;;;;0.03;0.03;;;;;;;20.24;58.59;102318.44;5012209;28;20405;-81
2022/07/22 00:08:55;;;;;;;0.10;0.10;;;;;;;20.27;59.22;102318.31;5020275;28;20045;-81
2022/07/22 00:11:22;;;;;;;15.35;1.02;;;;;;;20.26;59.58;102316.59;5011875;28;20022;-81
2022/07/22 00:13:48;;;;;;;0.15;0.15;;;;;;;20.23;59.51;102311.31;4997408;28;20026;-80
2022/07/22 00:16:14;;;;;;;0.20;0.20;;;;;;;20.24;60.20;102307.69;5009890;28;20116;-80
2022/07/22 00:18:41;;;;;;;0.63;0.40;;;;;;;20.22;59.02;102308.69;5006798;28;20041;-79
2022/07/22 00:21:07;;;;;;;0.10;0.10;;;;;;;20.26;59.69;102305.81;5005809;28;20482;-79
2022/07/22 00:23:33;;;;;;;0.03;0.03;;;;;;;20.27;59.53;102299.47;5016325;28;20030;-79
2022/07/22 00:25:59;;;;;;;0.10;0.10;;;;;;;20.28;59.88;102303.94;5016034;28;20065;-79
2022/07/22 00:28:25;;;;;;;0.05;0.05;;;;;;;20.24;58.98;102302.28;4995978;28;20038;-79
2022/07/22 00:30:52;;;;;;;0.10;0.10;;;;;;;20.20;58.84;102295.28;4999098;28;20022;-80
2022/07/22 00:33:18;;;;;;;0.10;0.10;;;;;;;20.25;59.28;102303.16;4999968;28;20031;-80
2022/07/22 00:35:44;;;;;;;0.03;0.03;;;;;;;20.19;58.65;102298.91;5000660;28;20030;-81
2022/07/22 00:38:10;;;;;;;0.10;0.10;;;;;;;20.19;59.11;102298.91;5006503;28;20027;-80
2022/07/22 00:40:36;;;;;;;0.10;0.10;;;;;;;20.22;58.96;102295.22;5006340;28;20034;-80
2022/07/22 00:43:03;;;;;;;0.10;0.10;;;;;;;20.22;59.76;102288.00;4998953;28;20031;-80
2022/07/22 00:45:29;;;;;;;0.10;0.10;;;;;;;20.22;59.57;102290.69;4999396;28;20049;-80
2022/07/22 00:47:55;;;;;;;0.20;0.20;;;;;;;20.26;59.95;102291.47;4998094;28;20093;-79
2022/07/22 00:50:23;;;;;;;0.00;0.00;;;;;;;20.24;59.11;102294.22;5000937;28;20038;-80
2022/07/22 00:52:50;;;;;;;0.00;0.00;;;;;;;20.24;59.17;102283.47;5001880;28;20038;-80
2022/07/22 00:55:16;;;;;;;0.22;0.22;;;;;;;20.23;59.24;102280.84;4999898;28;20035;-79
2022/07/22 00:57:42;;;;;;;0.30;0.30;;;;;;;20.23;59.49;102283.53;5010317;28;20037;-80
2022/07/22 01:00:15;;;;;;;0.10;0.10;;;;;;;20.25;59.69;102276.25;5011696;28;20022;-80
2022/07/22 01:02:41;;;;;;;0.10;0.10;;;;;;;20.22;59.80;102288.00;5019460;28;20041;-80
2022/07/22 01:05:08;;;;;;;2.67;2.45;;;;;;;20.15;59.44;102281.09;5018549;28;20040;-79
2022/07/22 01:07:34;;;;;;;0.10;0.10;;;;;;;20.18;59.78;102281.00;5007574;28;20034;-80
2022/07/22 01:10:00;;;;;;;0.00;0.00;;;;;;;20.17;59.73;102288.19;5020160;28;20022;-79
2022/07/22 01:12:26;;;;;;;0.00;0.00;;;;;;;20.18;59.79;102286.38;5007165;28;20048;-79
2022/07/22 01:14:52;;;;;;;0.10;0.10;;;;;;;20.21;59.87;102280.88;5008430;28;20054;-79
2022/07/22 01:17:18;;;;;;;0.20;0.20;;;;;;;20.23;60.16;102278.16;4999781;28;20037;-80
2022/07/22 01:19:45;;;;;;;0.30;0.30;;;;;;;20.21;59.75;102275.47;5000223;28;20030;-79
2022/07/22 01:22:11;;;;;;;0.03;0.03;;;;;;;20.23;59.67;102279.00;5005409;28;20130;-79
2022/07/22 01:24:37;;;;;;;0.08;0.08;;;;;;;20.23;59.72;102279.00;4997111;28;20057;-79
2022/07/22 01:27:03;;;;;;;0.10;0.10;;;;;;;20.16;58.81;102274.78;5004061;28;20030;-79
2022/07/22 01:29:30;;;;;;;0.10;0.10;;;;;;;20.22;59.42;102274.56;5007507;28;20041;-79
2022/07/22 01:31:56;;;;;;;0.10;0.10;;;;;;;20.23;59.86;102279.00;4999199;28;20407;-80
2022/07/22 01:34:23;;;;;;;0.10;0.10;;;;;;;20.27;59.80;102277.94;4999380;28;20053;-79
2022/07/22 01:36:49;;;;;;;0.10;0.10;;;;;;;20.28;60.22;102277.00;4997795;28;20026;-79
2022/07/22 01:39:15;;;;;;;0.10;0.10;;;;;;;20.29;60.08;102270.69;5007022;28;20434;-80
2022/07/22 01:41:42;;;;;;;0.10;0.10;;;;;;;20.29;59.69;102276.09;5009907;28;20031;-80
2022/07/22 01:44:09;;;;;;;0.10;0.10;;;;;;;20.30;59.54;102269.78;5019784;28;20034;-80
2022/07/22 01:46:35;;;;;;;0.10;0.10;;;;;;;20.31;59.65;102270.63;5016356;28;20148;-79
2022/07/22 01:49:01;;;;;;;0.10;0.10;;;;;;;20.33;60.07;102268.78;5005258;28;20061;-79
2022/07/22 01:51:27;;;;;;;0.10;0.10;;;;;;;20.35;60.15;102273.16;5007303;28;20038;-80
2022/07/22 01:53:54;;;;;;;0.10;0.10;;;;;;;20.36;60.07;102272.22;5014787;28;20056;-80
2022/07/22 01:56:20;;;;;;;0.10;0.10;;;;;;;20.39;59.87;102270.34;5006580;28;20049;-80
2022/07/22 01:58:46;;;;;;;0.00;0.00;;;;;;;20.40;60.12;102253.25;5014660;28;20025;-80
2022/07/22 02:01:12;;;;;;;0.10;0.10;;;;;;;20.43;60.27;102263.91;5022596;28;20034;-80
2022/07/22 02:03:38;;;;;;;0.10;0.10;;;;;;;20.44;60.24;102260.28;5022245;28;20108;-79
2022/07/22 02:06:04;;;;;;;0.00;0.00;;;;;;;20.43;59.88;102254.00;5010328;28;20045;-80
2022/07/22 02:08:30;;;;;;;0.10;0.10;;;;;;;20.45;59.69;102251.25;5011320;28;20482;-80
2022/07/22 02:10:57;;;;;;;0.10;0.10;;;;;;;20.44;59.40;102250.38;5010984;28;20410;-80
2022/07/22 02:13:23;;;;;;;0.10;0.10;;;;;;;20.44;59.41;102252.22;5018979;28;20049;-80
2022/07/22 02:15:49;;;;;;;0.10;0.10;;;;;;;20.41;59.40;102255.91;5012471;28;20034;-81
2022/07/22 02:18:18;;;;;;;0.10;0.10;;;;;;;20.44;59.37;102254.91;5010384;28;20026;-80
2022/07/22 02:20:45;;;;;;;0.10;0.10;;;;;;;20.42;59.49;102251.38;5012654;28;20032;-79
2022/07/22 02:23:12;;;;;;;0.10;0.10;;;;;;;20.43;59.49;102253.16;5014306;28;20026;-80
2022/07/22 02:25:40;;;;;;;0.10;0.10;;;;;;;20.43;59.32;102251.31;5013176;28;20037;-80
2022/07/22 02:28:08;;;;;;;0.10;0.10;;;;;;;20.43;59.42;102258.53;5011816;28;20133;-79
2022/07/22 02:30:34;;;;;;;0.10;0.10;;;;;;;20.41;59.59;102258.59;5021111;28;20068;-81
2022/07/22 02:33:00;;;;;;;0.10;0.10;;;;;;;20.39;59.35;102263.16;5022274;28;20064;-79
2022/07/22 02:35:26;;;;;;;1.17;1.08;;;;;;;20.39;59.44;102260.47;5015700;28;20034;-80
2022/07/22 02:37:52;;;;;;;0.00;0.00;;;;;;;20.39;59.31;102251.50;5009720;28;20036;-80
2022/07/22 02:40:19;;;;;;;0.10;0.10;;;;;;;20.35;59.10;102262.38;5012836;28;20029;-79
2022/07/22 02:42:45;;;;;;;0.10;0.10;;;;;;;20.38;59.43;102263.22;5013460;28;20061;-80
2022/07/22 02:45:11;;;;;;;0.10;0.10;;;;;;;20.39;59.86;102255.06;5010419;28;20037;-80
2022/07/22 02:47:55;;;;;;;0.00;0.00;;;;;;;20.47;59.72;102246.69;5011945;28;20030;-80
2022/07/22 02:50:22;;;;;;;0.10;0.10;;;;;;;20.43;59.73;102243.25;5018924;28;20073;-80
2022/07/22 02:52:49;;;;;;;0.38;0.38;;;;;;;20.42;59.64;102236.09;5021256;28;20033;-80
2022/07/22 02:55:15;;;;;;;0.10;0.10;;;;;;;20.43;59.51;102227.09;5015875;28;20049;-80
2022/07/22 02:57:42;;;;;;;0.10;0.10;;;;;;;20.46;59.94;102236.84;5010344;28;20034;-80
2022/07/22 03:00:10;;;;;;;0.10;0.10;;;;;;;20.47;60.26;102235.91;5015937;28;20041;-80
2022/07/22 03:02:37;;;;;;;0.10;0.10;;;;;;;20.48;60.40;102235.00;5021499;28;20037;-80
2022/07/22 03:05:05;;;;;;;0.10;0.10;;;;;;;20.49;60.34;102236.75;5016368;28;20034;-81
2022/07/22 03:07:31;;;;;;;0.00;0.00;;;;;;;20.48;60.46;102238.53;5004391;28;20042;-80
2022/07/22 03:09:58;;;;;;;0.10;0.10;;;;;;;20.48;60.59;102232.31;5005436;28;20061;-81
2022/07/22 03:12:24;;;;;;;0.08;0.08;;;;;;;20.50;60.49;102238.50;5010090;28;20045;-81
2022/07/22 03:14:52;;;;;;;0.10;0.10;;;;;;;20.50;60.71;102233.13;5005134;28;20069;-81
2022/07/22 03:17:18;;;;;;;0.00;0.00;;;;;;;20.48;60.80;102235.84;5012897;28;20030;-80
2022/07/22 03:19:44;;;;;;;0.10;0.10;;;;;;;20.48;60.89;102237.69;5021318;28;20084;-79
2022/07/22 03:22:10;;;;;;;0.03;0.03;;;;;;;20.47;61.11;102235.91;5020933;28;20026;-81
2022/07/22 03:24:36;;;;;;;0.28;0.28;;;;;;;20.46;61.06;102242.25;5015800;28;20096;-80
2022/07/22 03:27:02;;;;;;;0.10;0.10;;;;;;;20.45;61.12;102241.38;5011756;28;20056;-79
2022/07/22 03:29:28;;;;;;;0.20;0.20;;;;;;;20.46;61.31;102242.25;5013107;28;20018;-79
2022/07/22 03:31:54;;;;;;;0.10;0.10;;;;;;;20.45;61.16;102235.09;5020852;28;20033;-80
2022/07/22 03:34:20;;;;;;;0.10;0.10;;;;;;;20.44;61.11;102244.13;5015973;28;20502;-80
2022/07/22 03:36:47;;;;;;;0.10;0.10;;;;;;;20.43;61.34;102240.56;5011314;28;20406;-80
2022/07/22 03:39:13;;;;;;;0.00;0.00;;;;;;;20.42;61.13;102236.09;5037251;22;20503;-79
2022/07/22 03:41:41;;;;;;;0.10;0.10;;;;;;;20.43;61.39;102231.59;5031328;28;20033;-79
2022/07/22 03:44:07;;;;;;;0.10;0.10;;;;;;;20.42;61.32;102235.22;5025878;28;20087;-79
2022/07/22 03:46:33;;;;;;;0.00;0.00;;;;;;;20.43;61.45;102242.38;5013158;28;20030;-79
2022/07/22 03:48:59;;;;;;;0.10;0.10;;;;;;;20.44;61.53;102241.44;5013144;28;20411;-79
2022/07/22 03:51:26;;;;;;;0.10;0.10;;;;;;;20.43;61.36;102237.84;5012328;28;20040;-78
2022/07/22 03:53:52;;;;;;;0.10;0.10;;;;;;;20.44;61.35;102236.06;5023637;28;20040;-79
2022/07/22 03:56:18;;;;;;;0.10;0.10;;;;;;;20.44;61.28;102241.44;5011382;28;20041;-79
2022/07/22 03:58:44;;;;;;;0.10;0.10;;;;;;;20.36;61.04;102242.63;5014658;28;20112;-79
2022/07/22 04:01:10;;;;;;;0.10;0.10;;;;;;;20.38;61.08;102244.38;5031393;28;20395;-79
2022/07/22 04:03:36;;;;;;;0.00;0.00;;;;;;;20.36;61.30;102237.22;5032239;28;20034;-79
2022/07/22 04:06:03;;;;;;;0.10;0.10;;;;;;;20.39;61.22;102243.41;5032353;28;20037;-79
2022/07/22 04:08:29;;;;;;;0.10;0.10;;;;;;;20.40;61.22;102246.06;5010848;28;20065;-79
2022/07/22 04:10:55;;;;;;;0.10;0.10;;;;;;;20.40;61.39;102248.75;5012231;28;20065;-79
2022/07/22 04:13:21;;;;;;;0.10;0.10;;;;;;;20.42;61.54;102246.00;5013321;28;20034;-79
2022/07/22 04:15:47;;;;;;;0.00;0.00;;;;;;;20.42;61.51;102248.69;5013647;28;20461;-79
2022/07/22 04:18:15;;;;;;;0.10;0.10;;;;;;;20.43;61.46;102247.75;5012108;28;20022;-79
2022/07/22 04:20:41;;;;;;;0.10;0.10;;;;;;;20.46;61.62;102247.63;5014142;28;20040;-79
2022/07/22 04:23:07;;;;;;;0.10;0.10;;;;;;;20.47;61.55;102246.69;5017473;28;20037;-79
2022/07/22 04:25:33;;;;;;;0.05;0.05;;;;;;;20.48;61.32;102245.75;5030588;28;20045;-79
2022/07/22 04:28:00;;;;;;;0.10;0.10;;;;;;;20.50;61.13;102241.19;5017158;28;20021;-79
2022/07/22 04:30:26;;;;;;;0.10;0.10;;;;;;;20.56;61.29;102242.75;5011485;28;20049;-79
2022/07/22 04:32:52;;;;;;;0.00;0.00;;;;;;;20.58;61.24;102238.19;5012114;28;20022;-79
2022/07/22 04:35:19;;;;;;;0.00;0.00;;;;;;;20.61;61.28;102240.75;5012758;28;20072;-79
2022/07/22 04:37:45;;;;;;;0.10;0.10;;;;;;;20.62;61.29;102227.25;5008174;28;20029;-79
2022/07/22 04:40:11;;;;;;;0.10;0.10;;;;;;;20.67;61.37;102229.72;5017217;28;20025;-79
2022/07/22 04:42:38;;;;;;;0.00;0.00;;;;;;;20.69;61.15;102235.94;5031796;28;20072;-79
2022/07/22 04:45:04;;;;;;;0.13;0.13;;;;;;;20.72;61.26;102237.66;5033252;28;20040;-79
2022/07/22 04:47:30;;;;;;;0.10;0.10;;;;;;;20.72;61.26;102230.44;5013326;28;20034;-79
2022/07/22 04:49:56;;;;;;;0.20;0.20;;;;;;;20.75;61.30;102240.22;5010709;28;20125;-78
2022/07/22 04:52:22;;;;;;;0.00;0.00;;;;;;;20.77;61.28;102233.88;5010461;28;20056;-79
2022/07/22 04:54:48;;;;;;;2.00;1.48;;;;;;;20.80;61.21;102235.56;5012004;28;20036;-79
2022/07/22 04:57:14;;;;;;;0.10;0.10;;;;;;;20.84;61.45;102237.16;5005166;28;20030;-79
2022/07/22 04:59:41;;;;;;;0.13;0.13;;;;;;;20.87;61.51;102228.94;5004657;28;20488;-79
2022/07/22 05:02:07;;;;;;;0.10;0.10;;;;;;;20.90;61.24;102231.53;5011755;28;20034;-79
2022/07/22 05:04:33;;;;;;;0.10;0.10;;;;;;;20.95;61.08;102229.50;5013351;28;20026;-79
2022/07/22 05:06:59;;;;;;;0.10;0.10;;;;;;;21.01;61.05;102240.03;5011132;28;20112;-79
2022/07/22 05:09:25;;;;;;;0.10;0.10;;;;;;;21.05;60.71;102226.41;5011958;28;20768;-79
2022/07/22 05:11:51;;;;;;;0.20;0.20;;;;;;;21.11;60.77;102239.63;5020478;28;20034;-79
2022/07/22 05:14:17;;;;;;;0.10;0.10;;;;;;;21.14;60.78;102237.69;5013664;28;20040;-79
2022/07/22 05:16:43;;;;;;;0.10;0.10;;;;;;;21.16;60.42;102243.91;5011141;28;20104;-79
2022/07/22 05:19:10;;;;;;;0.10;0.10;;;;;;;21.19;60.40;102232.13;5008599;28;20469;-79
2022/07/22 05:21:36;;;;;;;0.10;0.10;;;;;;;21.24;60.43;102235.47;5023385;28;20169;-79
2022/07/22 05:24:03;;;;;;;0.10;0.10;;;;;;;21.27;59.95;102232.66;5011571;28;20413;-79
2022/07/22 05:26:31;;;;;;;0.10;0.10;;;;;;;21.29;59.54;102229.91;5011797;28;20030;-79
2022/07/22 05:28:57;;;;;;;0.10;0.10;;;;;;;21.32;59.41;102227.94;5012785;28;20033;-79
2022/07/22 05:31:23;;;;;;;0.10;0.10;;;;;;;21.35;59.51;102232.34;5012313;28;20037;-79
2022/07/22 05:33:49;;;;;;;0.63;0.63;;;;;;;21.38;59.05;102231.31;5016785;28;20380;-79
2022/07/22 05:36:16;;;;;;;0.15;0.15;;;;;;;21.40;59.11;102224.91;5018768;28;20029;-79
2022/07/22 05:38:42;;;;;;;0.10;0.10;;;;;;;21.43;58.94;102229.28;5021186;28;20602;-78
2022/07/22 05:41:08;;;;;;;0.10;0.10;;;;;;;21.48;59.34;102235.34;5014923;28;20026;-79
2022/07/22 05:43:34;;;;;;;0.00;0.00;;;;;;;21.54;59.20;102227.00;5014849;28;20030;-79
2022/07/22 05:46:00;;;;;;;0.00;0.00;;;;;;;21.59;59.46;102233.09;5014048;28;20038;-79
2022/07/22 05:48:26;;;;;;;0.10;0.10;;;;;;;21.64;59.20;102228.38;5009835;28;20067;-79
2022/07/22 05:50:52;;;;;;;0.10;0.10;;;;;;;21.69;58.89;102235.41;5019062;28;20046;-79
2022/07/22 05:53:18;;;;;;;0.10;0.10;;;;;;;21.72;58.60;102232.53;5022729;28;20037;-79
2022/07/22 05:55:45;;;;;;;0.10;0.10;;;;;;;21.72;58.19;102240.63;5016269;28;20531;-79
2022/07/22 05:58:11;;;;;;;0.10;0.10;;;;;;;21.78;58.70;102234.97;5017660;28;20038;-79
2022/07/22 06:00:39;;;;;;;0.10;0.10;;;;;;;21.81;57.74;102230.31;5017943;28;20022;-79
2022/07/22 06:03:05;;;;;;;0.40;0.40;;;;;;;21.91;58.15;102236.16;5017505;28;20038;-79
2022/07/22 06:05:31;;;;;;;0.10;0.10;;;;;;;21.96;57.66;102233.25;5016568;28;20030;-79
2022/07/22 06:08:01;;;;;;;0.10;0.10;;;;;;;22.03;57.28;102236.53;5028534;28;20045;-81
2022/07/22 06:10:27;;;;;;;0.10;0.10;;;;;;;22.03;57.80;102225.75;5037415;28;20037;-81
2022/07/22 06:12:53;;;;;;;0.00;0.00;;;;;;;22.03;56.88;102239.25;5037171;28;20117;-82
2022/07/22 06:15:19;;;;;;;0.10;0.10;;;;;;;22.06;57.39;102233.72;5024188;28;20037;-82
2022/07/22 06:17:45;;;;;;;0.10;0.10;;;;;;;22.10;56.83;102224.53;5015338;28;20033;-82
2022/07/22 06:20:11;;;;;;;0.20;0.20;;;;;;;22.13;57.68;102216.25;5015434;28;20026;-82
2022/07/22 06:22:40;;;;;;;0.05;0.05;;;;;;;22.17;57.57;102220.59;5013702;28;20037;-82
2022/07/22 06:25:07;;;;;;;0.10;0.10;;;;;;;22.17;56.41;102226.00;5013862;28;20112;-81
2022/07/22 06:27:34;;;;;;;0.05;0.05;;;;;;;22.20;56.01;102220.44;5028007;28;20040;-81
2022/07/22 06:30:00;;;;;;;0.28;0.28;;;;;;;22.28;55.91;102220.06;5020022;28;20168;-81
2022/07/22 06:32:26;;;;;;;0.22;0.22;;;;;;;22.35;56.45;102217.97;5017371;28;20427;-82
2022/07/22 06:34:52;;;;;;;0.10;0.10;;;;;;;22.41;55.52;102221.25;5017589;28;20045;-81
2022/07/22 06:37:18;;;;;;;0.00;0.00;;;;;;;22.47;56.06;102220.09;5017000;28;20044;-81
2022/07/22 06:39:46;;;;;;;0.10;0.10;;;;;;;22.52;56.00;102219.84;5017696;28;20033;-82
2022/07/22 06:42:12;;;;;;;0.35;0.35;;;;;;;22.56;55.22;102227.75;5032775;28;20029;-81
2022/07/22 06:44:38;;;;;;;0.10;0.10;;;;;;;22.60;55.09;102226.66;5038338;28;20034;-81
2022/07/22 06:47:04;;;;;;;0.25;0.25;;;;;;;22.67;54.54;102229.03;5039243;28;20067;-81
2022/07/22 06:49:31;;;;;;;0.10;0.10;;;;;;;22.75;54.59;102232.25;5023196;28;20045;-81
2022/07/22 06:51:57;;;;;;;0.08;0.08;;;;;;;22.81;53.97;102231.94;5022548;28;20045;-82
2022/07/22 06:54:23;;;;;;;0.70;0.65;;;;;;;22.88;53.87;102232.50;5026778;28;20034;-82
2022/07/22 06:56:49;;;;;;;0.00;0.00;;;;;;;22.90;53.70;102225.19;5018704;28;20117;-82
2022/07/22 06:59:15;;;;;;;0.00;0.00;;;;;;;22.93;53.66;102230.47;5011198;28;20045;-82
2022/07/22 07:01:41;;;;;;;0.10;0.10;;;;;;;22.92;52.90;102228.72;5024077;28;20030;-82
2022/07/22 07:04:07;;;;;;;0.10;0.10;;;;;;;22.93;53.20;102233.16;5018292;28;20050;-82
2022/07/22 07:06:36;;;;;;;0.10;0.10;;;;;;;22.95;54.65;102228.53;5015678;28;20037;-82
2022/07/22 07:09:02;;;;;;;0.10;0.10;;;;;;;22.93;52.88;102231.31;5016426;28;20511;-82
2022/07/22 07:11:28;;;;;;;0.10;0.10;;;;;;;22.89;50.63;102228.84;5017693;28;20037;-82
2022/07/22 07:13:54;;;;;;;0.10;0.10;;;;;;;22.89;50.79;102227.03;5017003;28;20028;-80
2022/07/22 07:16:20;;;;;;;0.00;0.00;;;;;;;22.90;51.38;102230.59;5016022;28;20025;-81
2022/07/22 07:18:46;;;;;;;0.08;0.08;;;;;;;22.86;51.93;102229.88;5010111;28;20041;-81
2022/07/22 07:21:13;;;;;;;0.10;0.10;;;;;;;22.85;51.89;102233.53;5012448;28;20026;-81
2022/07/22 07:23:39;;;;;;;0.10;0.10;;;;;;;22.87;51.55;102230.78;5006713;28;20377;-80
2022/07/22 07:26:05;;;;;;;0.10;0.10;;;;;;;22.88;52.29;102228.00;5012554;28;20038;-80
2022/07/22 07:28:31;;;;;;;0.10;0.10;;;;;;;22.85;51.95;102228.13;5011819;28;20047;-80
2022/07/22 07:30:57;;;;;;;0.10;0.10;;;;;;;22.83;51.19;102229.16;5014630;28;20026;-79
2022/07/22 07:33:23;;;;;;;0.10;0.10;;;;;;;22.84;52.42;102231.81;5015885;28;20042;-80
2022/07/22 07:35:49;;;;;;;0.10;0.10;;;;;;;22.85;53.01;102227.25;5017929;28;20022;-80
2022/07/22 07:38:16;;;;;;;0.00;0.00;;;;;;;22.83;52.69;102224.66;5013744;28;20042;-80
2022/07/22 07:40:42;;;;;;;0.00;0.00;;;;;;;22.85;52.28;102230.81;5016151;28;20484;-80
2022/07/22 07:43:08;;;;;;;0.05;0.05;;;;;;;22.85;51.80;102233.53;5016635;28;20034;-80
2022/07/22 07:45:36;;;;;;;0.03;0.03;;;;;;;22.87;51.72;102237.03;5014658;28;20065;-79
2022/07/22 07:48:03;;;;;;;0.00;0.00;;;;;;;22.87;51.23;102226.22;5014863;28;20034;-80
2022/07/22 07:50:29;;;;;;;0.10;0.10;;;;;;;22.92;51.69;102228.72;5014644;28;20034;-80
2022/07/22 07:52:59;;;;;;;1.13;0.63;;;;;;;22.93;50.93;102231.31;5006594;28;20030;-81
2022/07/22 07:55:25;;;;;;;0.10;0.10;;;;;;;22.91;49.49;102235.91;5014425;28;20041;-80
2022/07/22 07:57:52;;;;;;;0.32;0.32;;;;;;;23.00;50.89;102228.31;5015776;28;20145;-80
2022/07/22 08:00:22;;;;;;;0.10;0.10;;;;;;;23.07;50.82;102227.06;5016116;28;20038;-81
2022/07/22 08:02:49;;;;;;;0.10;0.10;;;;;;;23.13;50.68;102220.44;5015676;28;20073;-81
2022/07/22 08:05:15;;;;;;;0.10;0.10;;;;;;;23.21;50.48;102227.25;5015042;28;20096;-80
2022/07/22 08:07:42;;;;;;;0.10;0.10;;;;;;;23.23;50.48;102217.22;5013418;28;20045;-79
2022/07/22 08:10:11;;;;;;;0.10;0.10;;;;;;;23.25;49.88;102218.03;5009318;28;20076;-81
2022/07/22 08:12:37;;;;;;;0.10;0.10;;;;;;;23.30;49.78;102211.50;5010452;28;20036;-81
2022/07/22 08:15:04;;;;;;;0.22;0.22;;;;;;;23.34;49.42;102218.50;5010301;28;20403;-80
2022/07/22 08:17:30;;;;;;;1.08;1.08;;;;;;;23.33;46.44;102217.63;5015455;28;20040;-79
2022/07/22 08:19:56;;;;;;;0.20;0.20;;;;;;;23.45;48.20;102220.63;5015992;28;20038;-80
2022/07/22 08:22:23;;;;;;;0.10;0.10;;;;;;;23.51;48.51;102221.19;5007602;28;20574;-81
2022/07/22 08:24:49;;;;;;;0.05;0.05;;;;;;;23.52;48.15;102220.22;5016969;28;20021;-81
2022/07/22 08:27:15;;;;;;;0.10;0.10;;;;;;;23.65;48.80;102212.34;5008532;28;20522;-81
2022/07/22 08:29:41;;;;;;;0.10;0.10;;;;;;;23.72;48.76;102219.16;5021586;28;20042;-81
2022/07/22 08:32:07;;;;;;;0.10;0.10;;;;;;;23.81;48.39;102209.66;5014729;28;20038;-82
2022/07/22 08:34:34;;;;;;;0.20;0.20;;;;;;;23.86;48.78;102204.00;5012771;28;20029;-82
2022/07/22 08:37:00;;;;;;;0.00;0.00;;;;;;;23.94;49.02;102209.03;5011544;28;20038;-82
2022/07/22 08:39:27;;;;;;;0.10;0.10;;;;;;;23.95;48.58;102202.66;5011269;28;20045;-81
2022/07/22 08:41:54;;;;;;;0.45;0.45;;;;;;;23.94;48.44;102201.81;5011521;28;20033;-81
2022/07/22 08:44:20;;;;;;;0.10;0.10;;;;;;;23.93;47.72;102196.47;5009057;28;20098;-82
2022/07/22 08:46:46;;;;;;;0.45;0.45;;;;;;;23.96;48.10;102199.00;5012749;28;20026;-82
2022/07/22 08:49:15;;;;;;;0.10;0.10;;;;;;;24.00;48.55;102195.16;5014460;28;20052;-82
2022/07/22 08:51:41;;;;;;;0.00;0.00;;;;;;;24.05;48.82;102188.53;5010825;28;20033;-81
2022/07/22 08:54:08;;;;;;;0.25;0.25;;;;;;;24.06;46.80;102183.97;5012920;28;20484;-81
2022/07/22 08:56:34;;;;;;;0.00;0.00;;;;;;;24.06;47.77;102192.09;5013417;28;20034;-81
2022/07/22 08:59:00;;;;;;;0.13;0.13;;;;;;;24.09;48.36;102194.66;5013421;28;20392;-81
2022/07/22 09:01:26;;;;;;;0.10;0.10;;;;;;;24.08;47.83;102190.19;5012087;28;20034;-82
2022/07/22 09:03:55;;;;;;;0.10;0.10;;;;;;;24.08;48.21;102192.91;5025663;28;20144;-82
2022/07/22 09:06:24;;;;;;;0.10;0.10;;;;;;;24.08;47.60;102192.91;5010723;28;20022;-81
2022/07/22 09:08:58;;;;;;;0.03;0.03;;;;;;;24.03;47.98;102197.72;5022809;28;20490;-81
2022/07/22 09:11:28;;;;;;;0.10;0.10;;;;;;;23.93;47.59;102194.63;5018467;28;20433;-82
2022/07/22 09:13:57;;;;;;;0.10;0.10;;;;;;;23.97;47.96;102198.03;5014206;28;20037;-81
2022/07/22 09:16:45;;;;;;;0.10;0.10;;;;;;;24.17;47.87;102191.50;5014972;28;20415;-81
2022/07/22 09:19:12;;;;;;;0.45;0.32;;;;;;;24.37;48.15;102191.25;5015837;28;20072;-82
2022/07/22 09:21:41;;;;;;;0.00;0.00;;;;;;;24.67;47.32;102189.59;5015982;28;20038;-82
2022/07/22 09:24:08;;;;;;;0.35;0.30;;;;;;;24.87;46.87;102175.75;5024196;28;20027;-82
2022/07/22 09:26:37;;;;;;;0.10;0.10;;;;;;;24.96;45.44;102176.16;5019192;28;20503;-82
2022/07/22 09:29:05;;;;;;;0.13;0.13;;;;;;;24.94;46.72;102183.53;5011824;28;20034;-82
2022/07/22 09:31:34;;;;;;;0.90;0.90;;;;;;;24.95;45.68;102182.53;5016305;28;20041;-82
2022/07/22 09:34:01;;;;;;;0.10;0.10;;;;;;;24.93;45.35;102184.47;5017152;28;20026;-82
2022/07/22 09:36:27;;;;;;;0.03;0.03;;;;;;;24.95;45.68;102182.53;5014099;28;20025;-82
2022/07/22 09:38:54;;;;;;;0.10;0.10;;;;;;;24.99;45.03;102184.09;5043931;22;20046;-85
2022/07/22 09:41:21;;;;;;;0.10;0.10;;;;;;;25.00;43.63;102185.84;5037268;28;20033;-85
2022/07/22 09:43:48;;;;;;;0.10;0.10;;;;;;;25.01;44.08;102187.59;5036496;28;20029;-86
2022/07/22 09:46:14;;;;;;;0.22;0.22;;;;;;;25.01;45.02;102187.59;5036623;28;20026;-86
2022/07/22 09:48:41;;;;;;;0.10;0.10;;;;;;;24.95;44.67;102193.38;5036768;28;20038;-86
2022/07/22 09:51:08;;;;;;;0.10;0.10;;;;;;;24.94;45.20;102188.94;5033838;28;20108;-86
2022/07/22 09:53:34;;;;;;;0.10;0.10;;;;;;;24.88;44.49;102179.31;5036984;28;20045;-85
2022/07/22 09:56:05;;;;;;;0.10;0.10;;;;;;;25.01;45.54;102184.88;5040486;28;20447;-86
2022/07/22 09:58:32;;;;;;;0.10;0.10;;;;;;;25.13;44.75;102185.97;5039193;28;20034;-86
2022/07/22 10:01:03;;;;;;;0.10;0.10;;;;;;;25.34;44.90;102192.78;5036430;28;20052;-84
2022/07/22 10:03:33;;;;;;;0.10;0.10;;;;;;;25.51;43.43;102199.06;5039795;28;20045;-85
2022/07/22 10:06:01;;;;;;;0.10;0.10;;;;;;;25.65;43.25;102192.78;5040779;28;20060;-85
2022/07/22 10:08:29;;;;;;;0.10;0.10;;;;;;;25.59;42.57;102190.44;5040994;28;20029;-85
2022/07/22 10:11:00;;;;;;;0.10;0.10;;;;;;;25.77;41.90;102188.41;5037866;28;20129;-85
2022/07/22 10:13:27;;;;;;;0.10;0.10;;;;;;;25.91;42.01;102188.41;5049866;28;20025;-86
2022/07/22 10:15:55;;;;;;;0.10;0.10;;;;;;;25.97;40.29;102187.13;5049934;28;20283;-85
2022/07/22 10:18:22;;;;;;;0.28;0.28;;;;;;;26.02;42.14;102187.72;5039208;28;20029;-85
2022/07/22 10:20:59;;;;;;;0.10;0.10;;;;;;;25.98;41.72;102188.88;5032046;28;20087;-87
2022/07/22 10:23:25;;;;;;;0.20;0.20;;;;;;;26.02;42.19;102195.88;5038799;28;20053;-85
2022/07/22 10:25:54;;;;;;;0.00;0.00;;;;;;;25.97;41.64;102189.84;5039021;28;20079;-86
2022/07/22 10:28:25;;;;;;;0.10;0.10;;;;;;;26.00;41.95;102187.81;5037109;28;20106;-85
2022/07/22 10:30:51;;;;;;;0.00;0.00;;;;;;;26.02;40.87;102189.56;5033680;28;20055;-85
2022/07/22 10:33:19;;;;;;;0.10;0.10;;;;;;;26.22;41.46;102191.00;5038653;28;20112;-85
2022/07/22 10:36:03;;;;;;;0.10;0.10;;;;;;;26.55;39.91;102192.47;5036166;28;20041;-85
2022/07/22 10:38:31;;;;;;;0.20;0.20;;;;;;;26.68;40.93;102193.41;5037340;28;20087;-86
2022/07/22 10:41:02;;;;;;;0.10;0.10;;;;;;;26.71;39.63;102195.06;5038082;28;20042;-85
2022/07/22 10:43:31;;;;;;;0.10;0.10;;;;;;;26.61;40.49;102192.06;5040679;28;20033;-85
2022/07/22 10:46:00;;;;;;;0.10;0.10;;;;;;;26.50;40.48;102194.63;5034360;28;20304;-85
2022/07/22 10:48:48;;;;;;;0.00;0.00;;;;;;;26.50;40.01;102189.22;5043440;28;20029;-85
2022/07/22 10:51:20;;;;;;;0.10;0.10;;;;;;;26.34;40.43;102179.34;5044879;28;20033;-86
2022/07/22 10:53:55;;;;;;;4.85;0.65;;;;;;;26.28;39.09;102180.63;5048881;28;20033;-85
2022/07/22 10:56:38;;;;;;;0.00;0.00;;;;;;;26.29;40.08;102176.06;5041469;28;20070;-85
2022/07/22 11:01:53;;;;;;;0.20;0.20;;;;;;;26.20;40.92;102168.53;5111357;27;20407;-81
2022/07/22 11:04:21;;;;;;;;;;;;;;;26.32;39.24;102175.88;5111864;28;20069;-81
2022/07/22 11:06:50;;;;;;;0.15;0.15;;;;;;;26.28;40.80;102163.44;5112587;28;19908;-81
2022/07/22 11:09:18;;;;;;;0.10;0.10;;;;;;;26.24;40.30;102162.75;5112286;28;20036;-80
2022/07/22 11:11:48;;;;;;;1.30;0.63;;;;;;;26.37;41.22;102168.28;5110521;28;20020;-81
2022/07/22 11:16:57;;;;;;;0.10;0.10;;;;;;;26.77;40.24;102148.44;5122278;27;1217238;-81
2022/07/22 11:19:27;;;;;;;0.10;0.10;;;;;;;26.92;39.93;102146.53;5129223;27;20442;-79
2022/07/22 11:21:57;;;;;;;0.10;0.10;;;;;;;27.03;38.76;102152.09;5127858;28;20027;-81
2022/07/22 11:24:28;;;;;;;0.10;0.10;;;;;;;27.02;37.65;102153.06;5126399;27;20394;-79
2022/07/22 11:26:55;;;;;;;0.45;0.45;;;;;;;27.07;38.80;102148.16;5116923;28;20134;-79
2022/07/22 11:29:28;;;;;;;0.10;0.10;;;;;;;27.04;39.05;102156.56;5113676;28;20039;-80